Time;durP1;ratioP1;P1;durP2;ratioP2;P2;SDS_P1;SDS_P2;PMS_P1;PMS_P2;Temp;Humidity;BMP_temperature;BMP_pressure;BME280_temperature;BME280_humidity;BME280_pressure;Samples;Min_cycle;Max_cycle;Signal;HPM_P1;HPM_P2
2021/05/13 00:00:30;;;;;;;10.35;2.53;;;9.70;99.90;;;;;;5052317;28;21870;-68
2021/05/13 00:02:56;;;;;;;10.70;2.33;;;9.90;99.90;;;;;;5055346;28;20025;-62
2021/05/13 00:05:22;;;;;;;9.40;2.83;;;9.90;99.90;;;;;;5059534;28;20109;-69
2021/05/13 00:07:47;;;;;;;13.45;3.47;;;9.80;99.90;;;;;;5050682;28;20363;-69
2021/05/13 00:10:16;;;;;;;9.18;2.35;;;10.00;99.90;;;;;;5058142;28;20485;-66
2021/05/13 00:15:20;;;;;;;19.17;2.83;;;9.90;99.90;;;;;;5059220;28;20059;-65
2021/05/13 00:17:46;;;;;;;12.77;2.53;;;10.00;99.90;;;;;;5062382;28;20056;-70
2021/05/13 00:20:14;;;;;;;10.88;2.42;;;10.10;99.90;;;;;;5057163;28;20453;-69
2021/05/13 00:22:40;;;;;;;17.63;2.35;;;9.90;99.90;;;;;;5055944;28;20024;-63
2021/05/13 00:25:07;;;;;;;11.27;2.50;;;9.80;99.90;;;;;;5054655;28;20044;-67
2021/05/13 00:27:33;;;;;;;14.50;3.40;;;9.80;99.90;;;;;;5065592;28;20052;-68
2021/05/13 00:29:59;;;;;;;13.52;2.80;;;9.90;99.90;;;;;;5055003;28;20032;-67
2021/05/13 00:32:24;;;;;;;11.73;2.90;;;10.00;99.90;;;;;;5058386;28;20037;-69
2021/05/13 00:34:50;;;;;;;16.13;2.80;;;9.90;99.90;;;;;;5059963;28;20056;-69
2021/05/13 00:37:16;;;;;;;10.95;2.28;;;10.00;99.90;;;;;;5053129;28;20031;-64
2021/05/13 00:39:41;;;;;;;9.05;2.25;;;9.90;99.90;;;;;;5057866;28;20025;-69
2021/05/13 00:42:07;;;;;;;9.60;2.28;;;10.00;99.90;;;;;;5059477;28;20021;-66
2021/05/13 00:44:35;;;;;;;9.70;2.53;;;9.90;99.90;;;;;;5054312;28;20041;-69
2021/05/13 00:47:01;;;;;;;11.48;2.22;;;9.90;99.90;;;;;;5062796;28;20096;-68
2021/05/13 00:49:27;;;;;;;10.77;2.30;;;9.80;99.90;;;;;;5061290;28;20594;-68
2021/05/13 00:51:53;;;;;;;12.55;2.35;;;9.90;99.90;;;;;;5060282;28;20033;-70
2021/05/13 00:54:20;;;;;;;7.03;1.50;;;9.60;99.90;;;;;;5053842;28;20031;-70
2021/05/13 00:56:46;;;;;;;10.77;2.15;;;9.80;99.90;;;;;;5065231;28;20024;-69
2021/05/13 00:59:13;;;;;;;9.98;2.17;;;9.70;99.90;;;;;;5057222;28;20082;-69
2021/05/13 01:04:10;;;;;;;8.60;1.83;;;9.70;99.90;;;;;;5051584;28;20393;-67
2021/05/13 01:06:36;;;;;;;9.60;2.35;;;9.60;99.90;;;;;;5059894;28;20036;-67
2021/05/13 01:09:08;;;;;;;8.98;2.15;;;9.50;99.90;;;;;;5059635;28;20637;-69
2021/05/13 01:11:41;;;;;;;11.05;1.90;;;9.50;99.90;;;;;;5035598;28;20036;-70
2021/05/13 01:14:26;;;;;;;9.32;2.33;;;9.50;99.90;;;;;;5061755;28;20023;-69
2021/05/13 01:16:55;;;;;;;13.10;2.10;;;9.50;99.90;;;;;;5051719;28;20029;-61
2021/05/13 01:19:21;;;;;;;18.15;2.30;;;9.40;99.90;;;;;;5058553;28;20021;-65
2021/05/13 01:21:47;;;;;;;8.85;2.72;;;9.50;99.90;;;;;;5063978;28;20036;-68
2021/05/13 01:24:13;;;;;;;11.48;2.25;;;9.30;99.90;;;;;;5053616;28;20115;-69
2021/05/13 01:26:46;;;;;;;17.20;3.15;;;9.30;99.90;;;;;;5057641;28;20040;-68
2021/05/13 01:29:14;;;;;;;7.28;2.03;;;9.20;99.90;;;;;;5055343;28;20104;-68
2021/05/13 01:31:40;;;;;;;13.43;3.00;;;9.20;99.90;;;;;;5059413;28;20040;-61
2021/05/13 01:34:07;;;;;;;9.18;2.20;;;9.20;99.90;;;;;;5057239;28;20404;-69
2021/05/13 01:36:34;;;;;;;21.00;2.75;;;9.10;99.90;;;;;;5059011;28;20063;-68
2021/05/13 01:39:00;;;;;;;9.75;2.55;;;9.10;99.90;;;;;;5058419;28;20392;-62
2021/05/13 01:41:26;;;;;;;10.05;2.03;;;9.20;99.90;;;;;;5057751;28;20032;-68
2021/05/13 01:43:51;;;;;;;13.52;2.55;;;9.20;99.90;;;;;;5056811;28;20024;-69
2021/05/13 01:46:17;;;;;;;12.18;2.10;;;9.20;99.90;;;;;;5055243;28;20044;-68
2021/05/13 01:48:44;;;;;;;13.82;2.50;;;9.10;99.90;;;;;;5052977;28;20029;-62
2021/05/13 01:51:10;;;;;;;12.45;2.30;;;9.10;99.90;;;;;;5053967;28;20359;-68
2021/05/13 01:53:40;;;;;;;10.90;2.22;;;9.10;99.90;;;;;;5058784;28;20039;-68
2021/05/13 01:56:07;;;;;;;7.45;2.13;;;9.10;99.90;;;;;;5053084;28;20418;-64
2021/05/13 01:58:33;;;;;;;11.00;2.10;;;8.90;99.90;;;;;;5058501;28;20016;-69
2021/05/13 02:00:58;;;;;;;12.75;2.60;;;9.00;99.90;;;;;;5061299;28;20044;-69
2021/05/13 02:03:25;;;;;;;10.77;2.33;;;8.90;99.90;;;;;;5062031;28;20036;-68
2021/05/13 02:05:51;;;;;;;15.13;2.35;;;8.90;99.90;;;;;;5055149;28;20040;-68
2021/05/13 02:08:17;;;;;;;15.07;2.53;;;9.00;99.90;;;;;;5054525;28;20032;-68
2021/05/13 02:10:42;;;;;;;9.23;2.40;;;9.00;99.90;;;;;;5060947;28;20118;-70
2021/05/13 02:13:08;;;;;;;6.32;1.98;;;9.00;99.90;;;;;;5060559;28;20036;-69
2021/05/13 02:15:34;;;;;;;11.82;2.95;;;9.00;99.90;;;;;;5055553;28;20051;-66
2021/05/13 02:18:00;;;;;;;13.05;2.47;;;9.00;99.90;;;;;;5058289;28;20100;-69
2021/05/13 02:20:26;;;;;;;10.52;3.17;;;8.80;99.90;;;;;;5054918;28;20059;-69
2021/05/13 02:22:54;;;;;;;11.70;2.63;;;9.00;99.90;;;;;;5054091;28;20060;-69
2021/05/13 02:25:20;;;;;;;8.32;1.77;;;9.00;99.90;;;;;;5050061;28;20069;-68
2021/05/13 02:27:45;;;;;;;9.45;2.58;;;8.90;99.90;;;;;;5050824;28;20041;-69
2021/05/13 02:30:13;;;;;;;10.02;1.95;;;8.90;99.90;;;;;;5060695;28;20025;-67
2021/05/13 02:32:39;;;;;;;13.30;2.63;;;8.90;99.90;;;;;;5057295;28;20024;-69
2021/05/13 02:35:06;;;;;;;8.60;2.78;;;8.90;99.90;;;;;;5064910;28;20066;-69
2021/05/13 02:37:32;;;;;;;7.30;2.25;;;8.90;99.90;;;;;;5054104;28;20025;-65
2021/05/13 02:39:57;;;;;;;13.02;3.92;;;8.70;99.90;;;;;;5058231;28;20029;-70
2021/05/13 02:42:23;;;;;;;11.57;2.03;;;8.80;99.90;;;;;;5059329;28;20111;-69
2021/05/13 02:44:48;;;;;;;10.23;2.10;;;8.80;99.90;;;;;;5054463;28;20048;-69
2021/05/13 02:47:14;;;;;;;14.15;2.63;;;8.90;99.90;;;;;;5060605;28;20025;-65
2021/05/13 02:49:40;;;;;;;10.52;2.25;;;8.90;99.90;;;;;;5052145;28;20036;-69
2021/05/13 02:52:06;;;;;;;14.95;2.63;;;8.80;99.90;;;;;;5051446;28;20029;-70
2021/05/13 02:54:32;;;;;;;17.85;2.28;;;8.70;99.90;;;;;;5051657;28;20021;-69
2021/05/13 02:56:58;;;;;;;10.57;2.28;;;8.60;99.90;;;;;;5051568;28;20025;-67
2021/05/13 02:59:46;;;;;;;13.48;2.90;;;8.60;99.90;;;;;;5057707;28;20074;-66
2021/05/13 03:02:10;;;;;;;10.10;2.45;;;8.70;99.90;;;;;;5053867;28;20036;-68
2021/05/13 03:04:36;;;;;;;10.00;2.42;;;8.60;99.90;;;;;;5053702;28;20053;-67
2021/05/13 03:07:02;;;;;;;9.15;1.70;;;8.60;99.90;;;;;;5053522;28;20062;-68
2021/05/13 03:09:28;;;;;;;15.75;1.98;;;8.60;99.90;;;;;;5052276;28;20036;-69
2021/05/13 03:11:54;;;;;;;10.48;1.92;;;8.70;99.90;;;;;;5056700;28;20028;-69
2021/05/13 03:14:20;;;;;;;9.95;2.40;;;8.60;99.90;;;;;;5059527;28;20052;-69
2021/05/13 03:16:45;;;;;;;8.80;1.83;;;8.60;99.90;;;;;;5059641;28;20024;-61
2021/05/13 03:19:17;;;;;;;9.70;2.42;;;8.60;99.90;;;;;;5058270;28;20025;-68
2021/05/13 03:21:45;;;;;;;13.38;2.10;;;8.60;99.90;;;;;;5065192;28;20409;-66
2021/05/13 03:29:17;;;;;;;14.63;1.95;;;8.50;99.90;;;;;;5049607;28;20025;-59
2021/05/13 03:31:44;;;;;;;8.73;2.40;;;8.30;99.90;;;;;;5064474;28;20033;-61
2021/05/13 03:34:10;;;;;;;9.57;2.60;;;8.30;99.90;;;;;;5055556;28;20033;-62
2021/05/13 03:36:35;;;;;;;10.40;2.10;;;8.20;99.90;;;;;;5061119;28;20090;-63
2021/05/13 03:39:06;;;;;;;11.85;2.03;;;8.30;99.90;;;;;;5052216;28;20479;-61
2021/05/13 03:41:32;;;;;;;7.20;2.42;;;8.30;99.90;;;;;;5053551;28;20038;-60
2021/05/13 03:43:58;;;;;;;14.15;2.97;;;8.40;99.90;;;;;;5052045;28;20496;-59
2021/05/13 03:46:24;;;;;;;7.07;1.83;;;8.30;99.90;;;;;;5061969;28;20025;-60
2021/05/13 03:48:49;;;;;;;13.10;2.67;;;8.40;99.90;;;;;;5057634;28;20075;-66
2021/05/13 03:51:16;;;;;;;8.20;2.13;;;8.40;99.90;;;;;;5058564;28;20489;-61
2021/05/13 03:53:42;;;;;;;7.32;2.17;;;8.20;99.90;;;;;;5050004;28;20025;-60
2021/05/13 03:56:08;;;;;;;13.77;2.50;;;8.30;99.90;;;;;;5056328;28;20103;-66
2021/05/13 03:58:40;;;;;;;12.23;2.30;;;8.30;99.90;;;;;;5054380;28;20388;-60
2021/05/13 04:01:16;;;;;;;13.30;1.88;;;8.40;99.90;;;;;;5060729;28;20601;-61
2021/05/13 04:03:41;;;;;;;;;;;8.30;99.90;;;;;;5060051;28;20025;-59
2021/05/13 04:06:07;;;;;;;10.23;2.97;;;8.20;99.90;;;;;;5058090;28;19924;-62
2021/05/13 04:08:33;;;;;;;12.23;2.30;;;8.00;99.90;;;;;;5055248;28;20028;-60
2021/05/13 04:10:59;;;;;;;9.65;2.20;;;8.00;99.90;;;;;;5062654;28;20108;-61
2021/05/13 04:13:25;;;;;;;12.88;1.98;;;8.10;99.90;;;;;;5056542;28;20029;-59
2021/05/13 04:15:52;;;;;;;12.70;2.20;;;8.20;99.90;;;;;;5071632;28;20032;-60
2021/05/13 04:18:18;;;;;;;10.38;2.10;;;7.90;99.90;;;;;;5058544;28;20392;-59
2021/05/13 04:20:44;;;;;;;10.45;2.75;;;8.10;99.90;;;;;;5054117;28;20037;-63
2021/05/13 04:23:11;;;;;;;6.90;2.15;;;8.00;99.90;;;;;;5060942;28;20024;-67
2021/05/13 04:25:37;;;;;;;10.82;2.85;;;7.90;99.90;;;;;;5061049;28;20417;-62
2021/05/13 04:28:04;;;;;;;10.80;2.55;;;8.10;99.90;;;;;;5060720;28;20515;-62
2021/05/13 04:30:30;;;;;;;9.90;2.05;;;8.10;99.90;;;;;;5064987;28;20052;-66
2021/05/13 04:32:56;;;;;;;10.75;2.78;;;7.90;99.90;;;;;;5058877;28;20064;-62
2021/05/13 04:35:22;;;;;;;9.35;2.20;;;7.80;99.90;;;;;;5060228;28;20072;-61
2021/05/13 04:37:48;;;;;;;13.18;2.08;;;7.70;99.90;;;;;;5050036;28;20029;-61
2021/05/13 04:40:14;;;;;;;14.80;2.63;;;7.80;99.90;;;;;;5053181;28;20044;-60
2021/05/13 04:42:40;;;;;;;12.45;2.38;;;7.90;99.90;;;;;;5053842;28;20029;-61
2021/05/13 04:45:07;;;;;;;14.10;2.80;;;7.70;99.90;;;;;;5058111;28;20036;-61
2021/05/13 04:50:02;;;;;;;7.75;2.00;;;7.70;99.90;;;;;;5055848;28;20040;-67
2021/05/13 04:52:28;;;;;;;12.13;2.67;;;7.70;99.90;;;;;;5052318;28;20025;-62
2021/05/13 04:54:56;;;;;;;16.35;2.78;;;7.70;99.90;;;;;;5055100;28;20059;-62
2021/05/13 04:57:23;;;;;;;14.95;2.50;;;7.70;99.90;;;;;;5054512;28;20025;-66
2021/05/13 04:59:48;;;;;;;8.18;2.53;;;7.70;99.90;;;;;;5052481;28;20580;-61
2021/05/13 05:02:15;;;;;;;7.22;2.22;;;7.90;99.90;;;;;;5062105;28;20096;-63
2021/05/13 05:04:41;;;;;;;14.98;2.40;;;8.00;99.90;;;;;;5056761;28;20620;-67
2021/05/13 05:07:07;;;;;;;12.93;2.63;;;7.80;99.90;;;;;;5054722;28;20041;-60
2021/05/13 05:09:33;;;;;;;9.48;2.42;;;8.00;99.90;;;;;;5052726;28;20066;-61
2021/05/13 05:11:59;;;;;;;11.65;2.85;;;8.60;99.90;;;;;;5052077;28;20032;-59
2021/05/13 05:14:25;;;;;;;12.85;2.60;;;8.50;99.90;;;;;;5055846;28;20024;-66
2021/05/13 05:16:51;;;;;;;7.72;2.33;;;8.30;99.90;;;;;;5054737;28;20041;-61
2021/05/13 05:19:16;;;;;;;15.30;2.65;;;8.30;99.90;;;;;;5055688;28;20116;-61
2021/05/13 05:21:42;;;;;;;13.85;2.67;;;8.30;99.90;;;;;;5056349;28;20158;-64
2021/05/13 05:24:08;;;;;;;10.20;2.38;;;8.30;99.90;;;;;;5051074;28;20047;-63
2021/05/13 05:26:34;;;;;;;9.57;2.53;;;8.40;99.90;;;;;;5050181;28;20090;-61
2021/05/13 05:29:00;;;;;;;15.23;2.55;;;8.20;99.90;;;;;;5052585;28;20511;-61
2021/05/13 05:31:26;;;;;;;10.73;2.30;;;8.50;99.90;;;;;;5055399;28;20025;-69
2021/05/13 05:33:52;;;;;;;11.07;2.40;;;8.40;99.90;;;;;;5057660;28;20043;-62
2021/05/13 05:36:18;;;;;;;14.02;2.45;;;8.40;99.90;;;;;;5063596;28;20044;-68
2021/05/13 05:38:44;;;;;;;10.70;2.88;;;8.40;99.90;;;;;;5061826;28;20028;-61
2021/05/13 05:41:10;;;;;;;8.68;1.92;;;8.50;99.90;;;;;;5059269;28;20464;-61
2021/05/13 05:43:35;;;;;;;8.90;2.95;;;8.50;99.90;;;;;;5050210;28;20032;-60
2021/05/13 05:46:01;;;;;;;12.15;2.33;;;8.60;99.90;;;;;;5056655;28;20693;-60
2021/05/13 05:48:27;;;;;;;7.15;2.15;;;8.60;99.90;;;;;;5049883;28;20521;-69
2021/05/13 05:50:53;;;;;;;10.27;2.30;;;8.50;99.90;;;;;;5060647;28;20044;-61
2021/05/13 05:53:18;;;;;;;17.45;2.38;;;8.60;99.90;;;;;;5058536;28;20033;-65
2021/05/13 05:55:44;;;;;;;12.20;2.10;;;8.70;99.90;;;;;;5050183;28;20080;-59
2021/05/13 05:58:10;;;;;;;9.25;2.13;;;8.70;99.90;;;;;;5058805;28;20059;-61
2021/05/13 06:00:36;;;;;;;10.38;2.55;;;8.80;99.90;;;;;;5062817;28;20079;-64
2021/05/13 06:03:02;;;;;;;11.23;2.30;;;8.90;99.90;;;;;;5054796;28;20079;-60
2021/05/13 06:05:28;;;;;;;5.90;2.03;;;8.90;99.90;;;;;;5058368;28;20032;-59
2021/05/13 06:07:53;;;;;;;6.82;2.05;;;9.00;99.90;;;;;;5050268;28;20028;-59
2021/05/13 06:10:20;;;;;;;9.00;2.55;;;9.10;99.90;;;;;;5049011;28;20033;-59
2021/05/13 06:12:47;;;;;;;8.73;1.92;;;9.50;99.90;;;;;;5059043;28;20096;-60
2021/05/13 06:15:15;;;;;;;9.27;1.77;;;9.20;99.90;;;;;;5054338;28;20090;-60
2021/05/13 06:17:41;;;;;;;13.68;2.45;;;9.40;99.90;;;;;;5057923;28;20042;-60
2021/05/13 06:20:15;;;;;;;8.27;1.70;;;9.50;99.90;;;;;;5065033;28;20024;-59
2021/05/13 06:22:41;;;;;;;9.20;2.10;;;9.40;99.90;;;;;;5056031;28;20409;-60
2021/05/13 06:25:07;;;;;;;11.20;1.90;;;9.50;99.90;;;;;;5056702;28;20035;-59
2021/05/13 06:27:33;;;;;;;14.23;2.40;;;9.60;99.90;;;;;;5059775;28;20407;-59
2021/05/13 06:29:58;;;;;;;13.27;2.25;;;9.80;99.90;;;;;;5055839;28;20028;-60
2021/05/13 06:32:25;;;;;;;8.93;2.13;;;9.80;99.90;;;;;;5060505;28;20039;-59
2021/05/13 06:34:51;;;;;;;10.38;1.95;;;9.90;99.90;;;;;;5063079;28;20063;-59
2021/05/13 06:37:17;;;;;;;9.40;2.05;;;9.90;99.90;;;;;;5057681;28;20080;-59
2021/05/13 06:39:43;;;;;;;7.65;2.00;;;10.00;99.90;;;;;;5059508;28;20033;-59
2021/05/13 06:42:09;;;;;;;4.53;1.70;;;10.00;99.90;;;;;;5052679;28;20074;-59
2021/05/13 06:44:34;;;;;;;6.43;1.80;;;10.10;99.90;;;;;;5056378;28;20057;-58
2021/05/13 06:47:00;;;;;;;8.73;1.85;;;10.20;99.90;;;;;;5056190;28;20029;-59
2021/05/13 06:49:26;;;;;;;10.30;1.50;;;10.20;99.90;;;;;;5057581;28;20029;-61
2021/05/13 06:51:52;;;;;;;11.77;2.00;;;10.40;99.90;;;;;;5044838;28;20069;-59
2021/05/13 06:54:17;;;;;;;6.20;1.48;;;10.40;99.90;;;;;;5056022;28;20025;-59
2021/05/13 06:56:43;;;;;;;10.52;1.83;;;10.50;99.90;;;;;;5055899;28;20040;-59
2021/05/13 06:59:09;;;;;;;4.82;1.88;;;10.50;99.90;;;;;;5056571;28;20078;-59
2021/05/13 07:01:36;;;;;;;6.22;1.58;;;10.80;99.90;;;;;;5061704;28;20407;-59
2021/05/13 07:04:05;;;;;;;7.75;2.20;;;10.90;99.90;;;;;;5060264;28;21416;-59
2021/05/13 07:06:34;;;;;;;5.82;1.65;;;10.70;99.90;;;;;;5054670;28;20382;-60
2021/05/13 07:08:59;;;;;;;4.00;1.33;;;11.10;99.90;;;;;;5050509;28;20035;-59
2021/05/13 07:11:25;;;;;;;9.15;1.90;;;11.10;99.90;;;;;;5055125;28;20037;-59
2021/05/13 07:13:51;;;;;;;8.93;1.77;;;11.20;99.90;;;;;;5058305;28;20033;-59
2021/05/13 07:16:17;;;;;;;7.70;1.80;;;11.50;99.90;;;;;;5067048;28;20122;-60
2021/05/13 07:18:42;;;;;;;5.80;1.48;;;11.60;99.90;;;;;;5061231;28;20024;-59
2021/05/13 07:21:08;;;;;;;8.25;2.20;;;11.70;99.90;;;;;;5050131;28;20055;-59
2021/05/13 07:23:34;;;;;;;4.68;1.65;;;11.70;99.90;;;;;;5057324;28;20493;-60
2021/05/13 07:26:00;;;;;;;5.18;1.55;;;11.80;99.90;;;;;;5065198;28;20032;-60
2021/05/13 07:28:26;;;;;;;4.72;1.52;;;11.90;99.90;;;;;;5062763;28;20028;-59
2021/05/13 07:30:52;;;;;;;7.35;1.73;;;11.80;99.90;;;;;;5053642;28;20397;-59
2021/05/13 07:33:18;;;;;;;6.47;1.55;;;11.90;99.90;;;;;;5056992;28;20417;-59
2021/05/13 07:35:44;;;;;;;2.95;1.60;;;12.10;99.90;;;;;;5056095;28;20056;-59
2021/05/13 07:38:10;;;;;;;5.32;1.80;;;12.20;99.90;;;;;;5049882;28;20056;-59
2021/05/13 07:40:37;;;;;;;9.65;1.52;;;12.10;99.90;;;;;;5050869;28;20064;-60
2021/05/13 07:43:03;;;;;;;8.70;1.65;;;12.20;99.90;;;;;;5060328;28;20013;-61
2021/05/13 07:45:29;;;;;;;6.90;1.70;;;12.20;99.90;;;;;;5049941;28;20044;-60
2021/05/13 07:47:55;;;;;;;9.63;1.63;;;12.30;99.90;;;;;;5064572;28;20025;-60
2021/05/13 07:50:24;;;;;;;8.52;2.00;;;12.50;99.90;;;;;;5060070;28;20397;-59
2021/05/13 07:52:50;;;;;;;5.88;1.55;;;12.70;99.90;;;;;;5063297;28;20017;-59
2021/05/13 07:55:16;;;;;;;11.40;2.22;;;12.60;99.90;;;;;;5065918;28;20515;-59
2021/05/13 07:57:45;;;;;;;10.40;2.00;;;12.80;99.90;;;;;;5059195;28;20033;-67
2021/05/13 08:00:12;;;;;;;15.73;2.30;;;12.90;99.90;;;;;;5065653;28;20029;-61
2021/05/13 08:02:38;;;;;;;9.52;1.80;;;13.00;99.90;;;;;;5065721;28;20029;-66
2021/05/13 08:05:04;;;;;;;6.20;1.70;;;13.30;99.90;;;;;;5051037;28;20025;-60
2021/05/13 08:07:30;;;;;;;9.70;1.58;;;13.10;99.90;;;;;;5059525;28;20033;-66
2021/05/13 08:09:55;;;;;;;9.75;1.52;;;13.30;99.90;;;;;;5062914;28;20570;-62
2021/05/13 08:12:21;;;;;;;8.50;1.83;;;14.30;99.90;;;;;;5067179;28;20060;-71
2021/05/13 08:14:46;;;;;;;9.90;1.98;;;13.90;99.90;;;;;;5064415;28;20071;-71
2021/05/13 08:17:13;;;;;;;6.20;1.75;;;14.20;99.90;;;;;;5067405;28;20027;-71
2021/05/13 08:19:39;;;;;;;5.25;1.38;;;13.80;99.90;;;;;;5055651;28;20029;-70
2021/05/13 08:22:05;;;;;;;12.50;2.33;;;13.60;99.90;;;;;;5067442;28;20091;-72
2021/05/13 08:24:31;;;;;;;9.60;2.25;;;13.50;99.90;;;;;;5055934;28;20035;-69
2021/05/13 08:27:01;;;;;;;9.07;1.92;;;13.70;99.90;;;;;;5052022;28;20424;-70
2021/05/13 08:29:26;;;;;;;9.45;1.67;;;13.50;99.90;;;;;;5053451;28;20017;-71
2021/05/13 08:31:52;;;;;;;8.75;1.55;;;13.70;99.90;;;;;;5051201;28;20485;-71
2021/05/13 08:34:18;;;;;;;9.40;2.10;;;13.80;99.90;;;;;;5049001;28;20116;-65
2021/05/13 08:36:43;;;;;;;5.57;1.42;;;13.80;99.90;;;;;;5047981;28;20029;-69
2021/05/13 08:39:09;;;;;;;6.40;1.50;;;13.90;99.90;;;;;;5051006;28;20070;-70
2021/05/13 08:41:36;;;;;;;8.38;2.08;;;14.00;99.90;;;;;;5053435;28;20037;-60
2021/05/13 08:44:02;;;;;;;6.63;1.38;;;14.20;99.90;;;;;;5053373;28;20505;-61
2021/05/13 08:46:27;;;;;;;6.25;1.42;;;14.20;99.90;;;;;;5056264;28;20032;-61
2021/05/13 08:48:53;;;;;;;8.63;1.50;;;14.00;99.90;;;;;;5061861;28;20549;-61
2021/05/13 08:51:19;;;;;;;6.18;1.50;;;14.50;99.90;;;;;;5069318;28;20519;-60
2021/05/13 08:53:56;;;;;;;4.63;1.30;;;14.30;99.90;;;;;;5058770;28;20028;-60
2021/05/13 08:56:25;;;;;;;7.60;1.25;;;14.20;99.90;;;;;;5060497;28;20040;-60
2021/05/13 08:58:51;;;;;;;5.93;1.35;;;14.10;99.90;;;;;;5060305;28;20067;-60
2021/05/13 09:01:21;;;;;;;7.00;1.30;;;14.00;99.90;;;;;;5065229;28;20057;-60
2021/05/13 09:03:49;;;;;;;6.15;1.50;;;14.50;99.90;;;;;;5056691;28;20024;-60
2021/05/13 09:06:32;;;;;;;3.83;1.10;;;14.20;99.90;;;;;;5059478;28;20052;-61
2021/05/13 09:09:18;;;;;;;5.80;1.67;;;14.50;99.90;;;;;;5057855;28;20025;-60
2021/05/13 09:11:56;;;;;;;6.15;1.50;;;14.60;99.90;;;;;;5062315;28;20531;-61
2021/05/13 09:14:27;;;;;;;6.18;1.38;;;15.00;99.90;;;;;;5059491;28;20089;-60
2021/05/13 09:16:54;;;;;;;10.32;1.95;;;15.10;99.90;;;;;;5059090;28;20041;-61
2021/05/13 09:19:21;;;;;;;7.30;1.50;;;15.00;99.90;;;;;;5057473;28;20037;-61
2021/05/13 09:22:07;;;;;;;4.45;1.10;;;14.90;99.90;;;;;;5056246;28;20029;-61
2021/05/13 09:24:45;;;;;;;5.95;1.40;;;15.10;99.90;;;;;;5055477;28;20104;-61
2021/05/13 09:27:40;;;;;;;4.55;1.25;;;14.90;99.90;;;;;;5058252;28;20032;-61
2021/05/13 09:30:09;;;;;;;5.15;1.05;;;14.80;99.90;;;;;;5048651;28;20068;-61
2021/05/13 09:32:36;;;;;;;5.25;1.38;;;15.30;99.90;;;;;;5054851;28;20158;-61
2021/05/13 09:35:05;;;;;;;4.72;1.30;;;15.50;99.90;;;;;;5061345;28;20033;-61
2021/05/13 09:37:58;;;;;;;8.45;1.73;;;15.50;99.90;;;;;;5054683;28;20456;-61
2021/05/13 09:40:42;;;;;;;5.68;1.15;;;15.70;99.90;;;;;;5070314;28;20540;-61
2021/05/13 09:43:19;;;;;;;6.43;1.08;;;15.50;99.90;;;;;;5058619;28;20056;-61
2021/05/13 09:45:50;;;;;;;3.15;1.02;;;15.40;99.90;;;;;;5061574;28;20112;-60
2021/05/13 09:48:40;;;;;;;7.75;1.33;;;15.90;99.90;;;;;;5060677;28;20028;-59
2021/05/13 09:51:35;;;;;;;5.63;1.33;;;15.70;99.90;;;;;;5054537;28;20102;-61
2021/05/13 09:54:17;;;;;;;10.40;1.38;;;16.10;99.90;;;;;;5051621;28;20523;-61
2021/05/13 09:56:46;;;;;;;6.97;1.40;;;16.10;99.90;;;;;;5057547;28;20506;-60
2021/05/13 09:59:27;;;;;;;4.70;1.40;;;16.00;99.90;;;;;;5057864;28;20024;-60
2021/05/13 10:02:07;;;;;;;4.65;1.13;;;15.70;99.90;;;;;;5056471;28;20139;-61
2021/05/13 10:04:33;;;;;;;4.70;1.30;;;16.30;99.90;;;;;;5059976;28;20636;-61
2021/05/13 10:06:59;;;;;;;2.97;1.10;;;16.10;99.90;;;;;;5069218;28;20273;-61
2021/05/13 10:09:25;;;;;;;5.00;1.20;;;16.30;99.90;;;;;;5056360;28;20029;-61
2021/05/13 10:11:57;;;;;;;6.22;1.20;;;16.50;99.90;;;;;;5057671;28;20033;-63
2021/05/13 10:14:24;;;;;;;5.38;1.10;;;16.70;99.90;;;;;;5047339;28;20492;-61
2021/05/13 10:16:53;;;;;;;2.67;1.02;;;16.50;99.90;;;;;;5063928;28;20518;-61
2021/05/13 10:19:29;;;;;;;4.28;1.38;;;16.50;99.90;;;;;;5061583;28;20174;-63
2021/05/13 10:21:59;;;;;;;6.18;1.17;;;17.30;99.90;;;;;;5058677;28;20107;-60
2021/05/13 10:24:24;;;;;;;6.15;1.52;;;16.90;99.90;;;;;;5059561;28;20024;-61
2021/05/13 10:26:51;;;;;;;4.53;0.93;;;16.70;99.90;;;;;;5059631;28;20111;-62
2021/05/13 10:29:19;;;;;;;3.42;1.17;;;17.10;99.90;;;;;;5052927;28;20072;-61
2021/05/13 10:31:46;;;;;;;4.30;1.10;;;17.10;99.90;;;;;;5059135;28;20017;-61
2021/05/13 10:34:12;;;;;;;2.55;0.70;;;17.30;99.90;;;;;;5060917;28;20039;-64
2021/05/13 10:36:38;;;;;;;2.05;0.63;;;17.60;99.90;;;;;;5061218;28;20127;-61
2021/05/13 10:39:11;;;;;;;2.67;0.77;;;17.50;99.90;;;;;;5052519;28;20028;-63
2021/05/13 10:41:41;;;;;;;4.97;0.90;;;17.40;99.90;;;;;;5054389;28;20029;-61
2021/05/13 10:44:07;;;;;;;1.75;0.82;;;16.90;99.90;;;;;;5056783;28;20108;-61
2021/05/13 10:46:33;;;;;;;3.72;1.20;;;17.00;99.90;;;;;;5067569;28;20548;-62
2021/05/13 10:49:23;;;;;;;3.70;1.00;;;17.30;99.90;;;;;;5058323;28;20543;-61
2021/05/13 10:51:51;;;;;;;6.20;3.28;;;17.50;99.90;;;;;;5072729;28;20115;-63
2021/05/13 10:54:31;;;;;;;2.45;0.98;;;17.20;99.90;;;;;;5057409;28;20028;-61
2021/05/13 10:57:23;;;;;;;2.28;0.77;;;17.00;99.90;;;;;;5055818;28;20531;-62
2021/05/13 11:00:15;;;;;;;6.07;1.10;;;17.40;99.90;;;;;;5053702;28;20044;-61
2021/05/13 11:02:46;;;;;;;3.08;1.00;;;17.70;99.90;;;;;;5069410;28;20512;-61
2021/05/13 11:05:38;;;;;;;2.28;1.05;;;18.40;99.90;;;;;;5052642;28;20021;-61
2021/05/13 11:08:07;;;;;;;1.55;0.77;;;17.90;99.90;;;;;;5054204;28;20029;-62
2021/05/13 11:10:48;;;;;;;3.72;1.05;;;18.20;99.90;;;;;;5054995;28;20036;-61
2021/05/13 11:13:14;;;;;;;1.48;0.70;;;17.90;99.90;;;;;;5058225;28;20029;-61
2021/05/13 11:15:49;;;;;;;2.25;0.90;;;18.20;99.90;;;;;;5063775;28;20041;-61
2021/05/13 11:18:17;;;;;;;2.70;0.90;;;18.00;99.90;;;;;;5058177;28;20397;-61
2021/05/13 11:20:45;;;;;;;1.98;0.70;;;18.10;99.90;;;;;;5059575;28;20677;-62
2021/05/13 11:23:17;;;;;;;6.78;1.13;;;18.50;99.90;;;;;;5060738;28;20071;-61
2021/05/13 11:25:44;;;;;;;2.83;1.02;;;19.00;99.90;;;;;;5058245;28;20039;-62
2021/05/13 11:28:36;;;;;;;2.65;0.80;;;19.00;99.90;;;;;;5055128;28;20021;-60
2021/05/13 11:31:08;;;;;;;4.63;0.90;;;18.50;99.90;;;;;;5060413;28;20017;-61
2021/05/13 11:33:54;;;;;;;2.60;0.98;;;18.90;99.90;;;;;;5050741;28;20033;-60
2021/05/13 11:36:23;;;;;;;;;;;19.20;99.90;;;;;;5053022;28;20045;-62
2021/05/13 11:38:54;;;;;;;1.40;0.63;;;19.20;99.90;;;;;;5051697;28;20278;-61
2021/05/13 11:41:20;;;;;;;2.33;0.82;;;18.50;99.90;;;;;;5066817;28;20028;-60
2021/05/13 11:43:46;;;;;;;3.08;0.60;;;18.30;99.90;;;;;;5065256;28;20029;-60
2021/05/13 11:46:16;;;;;;;1.90;0.80;;;18.80;99.90;;;;;;5066925;28;20028;-60
2021/05/13 11:48:47;;;;;;;1.85;0.70;;;18.60;99.90;;;;;;5056939;28;20061;-61
2021/05/13 11:51:15;;;;;;;3.90;0.80;;;19.70;99.90;;;;;;5065388;28;20016;-60
2021/05/13 11:53:43;;;;;;;1.30;0.63;;;19.80;99.90;;;;;;5063035;28;20029;-61
2021/05/13 11:56:10;;;;;;;1.63;0.77;;;20.00;99.90;;;;;;5063508;28;20029;-62
2021/05/13 11:58:48;;;;;;;1.95;0.80;;;20.30;99.80;;;;;;5062728;28;20097;-60
2021/05/13 12:01:18;;;;;;;1.30;0.70;;;19.90;98.50;;;;;;5056388;28;20028;-61
2021/05/13 12:03:45;;;;;;;2.22;0.80;;;19.60;98.20;;;;;;5058573;28;20035;-60
2021/05/13 12:06:11;;;;;;;1.83;0.55;;;19.70;98.40;;;;;;5055557;28;20029;-60
2021/05/13 12:08:38;;;;;;;1.67;0.80;;;19.70;98.70;;;;;;5058182;28;20108;-61
2021/05/13 12:11:37;;;;;;;2.35;0.65;;;20.30;98.70;;;;;;5054229;28;20025;-61
2021/05/13 12:14:10;;;;;;;2.75;0.95;;;21.00;99.90;;;;;;5019695;28;20033;-61
2021/05/13 12:16:36;;;;;;;4.28;0.70;;;21.30;99.90;;;;;;5048953;28;20037;-61
2021/05/13 12:19:06;;;;;;;2.03;0.75;;;21.30;99.10;;;;;;5066168;28;20028;-61
2021/05/13 12:21:35;;;;;;;2.38;0.70;;;20.90;99.90;;;;;;5065326;28;20016;-60
2021/05/13 12:24:01;;;;;;;1.55;0.65;;;20.30;99.90;;;;;;5066402;28;20142;-61
2021/05/13 12:26:30;;;;;;;2.13;0.60;;;20.20;99.90;;;;;;5054039;28;20059;-60
2021/05/13 12:28:57;;;;;;;2.00;0.50;;;20.10;99.90;;;;;;5057251;28;20077;-61
2021/05/13 12:31:46;;;;;;;3.03;0.60;;;20.00;99.90;;;;;;5057988;28;20036;-66
2021/05/13 12:34:30;;;;;;;2.35;0.65;;;20.60;99.70;;;;;;5049464;28;20036;-65
2021/05/13 12:36:56;;;;;;;1.50;0.80;;;21.10;98.30;;;;;;5068314;28;20556;-70
2021/05/13 12:39:29;;;;;;;1.45;0.75;;;21.10;97.60;;;;;;5061448;28;20107;-71
2021/05/13 12:41:55;;;;;;;1.45;0.65;;;21.60;98.80;;;;;;5061776;28;20584;-70
2021/05/13 12:44:32;;;;;;;2.15;0.63;;;21.20;99.90;;;;;;5059408;28;20017;-67
2021/05/13 12:47:03;;;;;;;2.15;0.60;;;21.20;98.30;;;;;;5061314;28;20489;-70
2021/05/13 12:49:30;;;;;;;3.70;1.05;;;21.80;98.80;;;;;;5056856;28;20025;-71
2021/05/13 12:51:58;;;;;;;2.22;0.60;;;21.10;98.00;;;;;;5054803;28;20723;-71
2021/05/13 12:54:24;;;;;;;3.25;0.80;;;20.80;99.30;;;;;;5058182;28;20031;-72
2021/05/13 12:56:50;;;;;;;0.82;0.50;;;21.20;99.10;;;;;;5064501;28;20029;-70
2021/05/13 12:59:16;;;;;;;1.90;0.75;;;21.60;98.90;;;;;;5059487;28;20425;-70
2021/05/13 13:01:54;;;;;;;2.55;0.70;;;20.50;99.20;;;;;;5063747;28;20050;-63
2021/05/13 13:04:20;;;;;;;1.00;0.70;;;20.50;98.40;;;;;;5060038;28;20069;-61
2021/05/13 13:06:58;;;;;;;1.40;0.77;;;20.20;98.20;;;;;;5056076;28;20036;-64